createdAt,value
2022-08-09T00:04:10.737Z,21.35
2022-08-09T00:09:24.546Z,19.76
2022-08-09T00:14:36.213Z,18.87
2022-08-09T00:19:41.404Z,19.25
2022-08-09T00:24:54.269Z,21.31
2022-08-09T00:30:10.417Z,21.47
2022-08-09T00:35:29.514Z,19.88
2022-08-09T00:40:52.425Z,18.86
2022-08-09T00:45:55.977Z,19.15
2022-08-09T00:51:11.793Z,21.14
2022-08-09T00:56:16.647Z,21.20
2022-08-09T01:01:23.256Z,19.63
2022-08-09T01:06:54.255Z,18.69
2022-08-09T01:12:12.717Z,19.13
2022-08-09T01:17:22.334Z,21.21
2022-08-09T01:22:59.255Z,21.29
2022-08-09T01:28:05.969Z,19.54
2022-08-09T01:33:11.462Z,18.57
2022-08-09T01:38:19.298Z,18.92
2022-08-09T01:43:24.265Z,21.00
2022-08-09T01:48:31.526Z,21.16
2022-08-09T01:53:41.089Z,19.56
2022-08-09T01:58:49.140Z,18.56
2022-08-09T02:03:56.605Z,18.90
2022-08-09T02:08:59.974Z,20.91
2022-08-09T02:14:07.590Z,21.06
2022-08-09T02:19:12.319Z,19.38
2022-08-09T02:24:26.373Z,18.35
2022-08-09T02:29:33.972Z,18.70
2022-08-09T02:34:51.741Z,20.70
2022-08-09T02:40:10.510Z,20.79
2022-08-09T02:45:18.084Z,19.09
2022-08-09T02:50:29.283Z,19.08
2022-08-09T02:55:46.493Z,20.94
2022-08-09T03:01:04.389Z,20.91
2022-08-09T03:06:14.883Z,19.15
2022-08-09T03:12:06.514Z,18.25
2022-08-09T03:16:47.376Z,19.96
2022-08-09T03:21:52.362Z,21.20
2022-08-09T03:26:56.579Z,21.03
2022-08-09T03:32:00.794Z,19.19
2022-08-09T03:37:10.701Z,18.88
2022-08-09T03:42:28.910Z,20.67
2022-08-09T03:47:36.556Z,21.45
2022-08-09T03:52:46.079Z,20.15
2022-08-09T03:58:03.157Z,18.53
2022-08-09T04:03:15.266Z,19.68
2022-08-09T04:08:28.942Z,20.80
2022-08-09T04:14:37.646Z,19.36
2022-08-09T04:18:55.430Z,19.01
2022-08-09T04:24:01.850Z,20.68
2022-08-09T04:29:10.782Z,20.71
2022-08-09T04:34:19.100Z,19.06
2022-08-09T04:39:33.686Z,19.82
2022-08-09T04:44:49.389Z,21.39
2022-08-09T04:49:55.577Z,20.96
2022-08-09T04:55:00.850Z,19.52
2022-08-09T05:00:06.408Z,18.99
2022-08-09T05:05:10.786Z,20.99
2022-08-09T05:10:14.966Z,21.47
2022-08-09T05:15:38.706Z,20.28
2022-08-09T05:20:41.506Z,19.51
2022-08-09T05:25:50.846Z,19.87
2022-08-09T05:30:54.313Z,21.76
2022-08-09T05:35:58.906Z,21.27
2022-08-09T05:41:04.266Z,19.99
2022-08-09T05:46:07.335Z,19.30
2022-08-09T05:51:41.721Z,19.75
2022-08-09T05:56:33.478Z,21.73
2022-08-09T06:01:42.754Z,21.27
2022-08-09T06:06:49.763Z,19.94
2022-08-09T06:11:57.659Z,19.33
2022-08-09T06:17:00.951Z,20.07
2022-08-09T06:22:15.271Z,22.12
2022-08-09T06:27:18.735Z,21.32
2022-08-09T06:32:58.888Z,20.17
2022-08-09T06:37:52.994Z,20.76
2022-08-09T06:43:07.638Z,22.12
2022-08-09T06:48:16.421Z,20.95
2022-08-09T06:53:19.899Z,20.32
2022-08-09T07:00:46.652Z,19.98
2022-08-09T07:03:51.864Z,20.81
2022-08-09T07:08:56.852Z,22.38
2022-08-09T07:14:04.930Z,21.35
2022-08-09T07:19:15.004Z,20.53
2022-08-09T07:24:18.678Z,20.00
2022-08-09T07:29:23.997Z,21.40
2022-08-09T07:34:26.982Z,22.40
2022-08-09T07:39:40.953Z,21.21
2022-08-09T07:44:52.128Z,20.59
2022-08-09T07:50:08.397Z,20.29
2022-08-09T07:55:12.617Z,20.14
2022-08-09T08:00:20.780Z,21.09
2022-08-09T08:05:57.713Z,22.60
2022-08-09T08:11:03.396Z,21.61
2022-08-09T08:16:31.713Z,21.21
2022-08-09T08:21:39.487Z,21.06
2022-08-09T08:26:55.591Z,20.98
2022-08-09T08:32:03.648Z,21.07
2022-08-09T08:37:15.729Z,21.43
2022-08-09T08:42:24.302Z,22.52
2022-08-09T08:47:38.595Z,24.08
2022-08-09T08:52:58.340Z,25.56
2022-08-09T08:58:02.926Z,27.21
2022-08-09T09:03:08.733Z,27.78
2022-08-09T09:08:30.633Z,28.08
2022-08-09T09:13:55.561Z,28.82
2022-08-09T09:24:38.032Z,28.75
2022-08-09T09:30:10.620Z,28.79
2022-08-09T09:35:10.161Z,28.22
2022-08-09T09:40:13.382Z,27.58
2022-08-09T09:45:26.617Z,26.83
2022-08-09T09:50:50.949Z,26.14
2022-08-09T09:56:04.152Z,25.75
2022-08-09T10:01:30.875Z,25.65
2022-08-09T10:06:47.030Z,25.59
2022-08-09T10:12:12.941Z,25.87
2022-08-09T10:17:39.179Z,26.14
2022-08-09T10:22:44.033Z,26.10
2022-08-09T10:27:55.986Z,26.09
2022-08-09T10:33:08.059Z,26.03
2022-08-09T10:38:13.700Z,26.04
2022-08-09T10:43:47.026Z,25.98
2022-08-09T10:49:06.627Z,25.77
2022-08-09T10:54:14.483Z,25.63
2022-08-09T10:59:23.550Z,25.78
2022-08-09T11:04:36.080Z,26.03
2022-08-09T11:09:59.797Z,26.14
2022-08-09T11:15:33.605Z,26.09
2022-08-09T11:20:49.681Z,25.90
2022-08-09T11:25:54.801Z,25.71
2022-08-09T11:30:57.947Z,25.61
2022-08-09T11:36:01.859Z,25.58
2022-08-09T11:41:13.059Z,25.48
2022-08-09T11:46:18.436Z,25.46
2022-08-09T11:52:54.076Z,25.44
2022-08-09T11:56:53.755Z,25.28
2022-08-09T12:02:17.309Z,25.14
2022-08-09T12:07:28.030Z,25.14
2022-08-09T12:12:53.292Z,25.19
2022-08-09T12:17:59.234Z,25.39
2022-08-09T12:23:04.713Z,25.59
2022-08-09T12:29:11.901Z,25.53
2022-08-09T12:33:50.957Z,25.30
2022-08-09T12:38:58.058Z,24.82
2022-08-09T12:44:06.068Z,24.25
2022-08-09T12:49:11.776Z,23.64
2022-08-09T12:54:14.968Z,23.11
2022-08-09T12:59:21.263Z,22.64
2022-08-09T13:04:36.643Z,22.38
2022-08-09T13:09:43.207Z,22.21
2022-08-09T13:14:53.671Z,22.11
2022-08-09T13:20:09.492Z,22.09
2022-08-09T13:25:16.646Z,22.21
2022-08-09T13:30:48.717Z,22.43
2022-08-09T13:36:37.584Z,22.58
2022-08-09T13:41:46.175Z,22.74
2022-08-09T13:47:15.191Z,22.82
2022-08-09T13:51:58.842Z,22.96
2022-08-09T13:57:06.402Z,23.10
2022-08-09T14:02:10.394Z,23.18
2022-08-09T14:07:13.540Z,23.24
2022-08-09T14:12:17.016Z,23.18
2022-08-09T14:17:22.740Z,23.09
2022-08-09T14:22:26.905Z,23.10
2022-08-09T14:27:34.149Z,23.27
2022-08-09T14:32:54.309Z,23.49
2022-08-09T14:38:02.480Z,23.62
2022-08-09T14:43:06.946Z,23.65
2022-08-09T14:48:10.065Z,23.69
2022-08-09T14:53:19.379Z,23.61
2022-08-09T14:58:22.472Z,23.41
2022-08-09T15:03:27.280Z,23.25
2022-08-09T15:08:31.338Z,23.20
2022-08-09T15:13:48.663Z,23.12
2022-08-09T15:18:59.474Z,23.08
2022-08-09T15:24:12.385Z,23.01
2022-08-09T15:30:55.336Z,23.03
2022-08-09T15:34:42.457Z,23.02
2022-08-09T15:39:54.652Z,22.91
2022-08-09T15:45:03.937Z,22.77
2022-08-09T15:50:11.060Z,22.61
2022-08-09T15:55:20.276Z,22.50
2022-08-09T16:00:26.762Z,22.41
2022-08-09T16:05:47.288Z,22.31
2022-08-09T16:10:56.983Z,22.20
2022-08-09T16:16:04.659Z,22.12
2022-08-09T16:21:25.571Z,22.07
2022-08-09T16:26:33.694Z,22.06
2022-08-09T16:32:18.317Z,21.97
2022-08-09T16:37:03.874Z,21.87
2022-08-09T16:42:14.897Z,21.82
2022-08-09T16:48:40.827Z,21.78
2022-08-09T16:52:41.358Z,21.73
2022-08-09T16:58:10.259Z,21.62
2022-08-09T17:03:21.939Z,21.45
2022-08-09T17:08:43.269Z,21.29
2022-08-09T17:13:49.073Z,21.18
2022-08-09T17:19:05.201Z,21.08
2022-08-09T17:24:20.558Z,20.94
2022-08-09T17:29:31.351Z,20.80
2022-08-09T17:35:01.324Z,20.68
2022-08-09T17:39:58.041Z,20.57
2022-08-09T17:45:01.366Z,20.45
2022-08-09T17:50:14.147Z,20.31
2022-08-09T17:55:47.240Z,20.18
2022-08-09T18:00:50.654Z,20.07
2022-08-09T18:05:58.135Z,19.93
2022-08-09T18:11:07.807Z,19.81
2022-08-09T18:16:11.138Z,19.69
2022-08-09T18:21:23.135Z,19.56
2022-08-09T18:26:27.029Z,19.43
2022-08-09T18:31:51.633Z,19.32
2022-08-09T18:36:54.674Z,20.23
2022-08-09T18:41:57.599Z,22.13
2022-08-09T18:47:07.776Z,21.41
2022-08-09T18:52:18.763Z,20.30
2022-08-09T18:57:43.574Z,19.68
2022-08-09T19:02:51.344Z,19.25
2022-08-09T19:08:03.697Z,18.91
2022-08-09T19:13:20.595Z,18.65
2022-08-09T19:18:33.756Z,19.38
2022-08-09T19:24:36.557Z,21.51
2022-08-09T19:29:09.778Z,21.67
2022-08-09T19:34:24.688Z,20.34
2022-08-09T19:40:02.839Z,19.60
2022-08-09T19:44:52.300Z,19.03
2022-08-09T19:50:07.191Z,18.59
2022-08-09T19:55:14.896Z,18.20
2022-08-09T20:00:18.811Z,18.78
2022-08-09T20:05:23.688Z,21.02
2022-08-09T20:10:36.520Z,21.37
2022-08-09T20:16:34.768Z,19.88
2022-08-09T20:21:08.416Z,18.93
2022-08-09T20:26:13.117Z,18.35
2022-08-09T20:31:19.206Z,18.82
2022-08-09T20:36:27.145Z,20.96
2022-08-09T20:41:35.579Z,21.19
2022-08-09T20:46:44.382Z,19.65
2022-08-09T20:51:50.354Z,18.69
2022-08-09T20:56:54.317Z,18.91
2022-08-09T21:01:57.606Z,20.89
2022-08-09T21:07:13.059Z,21.09
2022-08-09T21:18:23.029Z,18.41
2022-08-09T21:22:53.973Z,18.77
2022-08-09T21:27:57.781Z,20.82
2022-08-09T21:33:01.294Z,20.96
2022-08-09T21:38:07.170Z,19.36
2022-08-09T21:43:11.213Z,18.36
2022-08-09T21:48:27.256Z,18.67
2022-08-09T21:53:40.627Z,20.65
2022-08-09T21:58:44.678Z,20.73
2022-08-09T22:03:48.432Z,19.03
2022-08-09T22:09:05.156Z,18.33
2022-08-09T22:14:14.853Z,20.12
2022-08-09T22:19:57.834Z,21.19
2022-08-09T22:26:04.074Z,19.96
2022-08-09T22:30:04.909Z,18.48
2022-08-09T22:36:00.996Z,19.74
2022-08-09T22:40:33.087Z,21.05
2022-08-09T22:48:14.953Z,20.86
2022-08-09T22:51:00.638Z,19.01
2022-08-09T22:56:31.426Z,19.08
2022-08-09T23:01:28.242Z,20.79
2022-08-09T23:06:51.406Z,20.72
2022-08-09T23:11:56.607Z,18.82
2022-08-09T23:16:59.563Z,19.00
2022-08-09T23:22:02.772Z,20.77
2022-08-09T23:27:06.405Z,20.54
2022-08-09T23:32:09.546Z,18.75
2022-08-09T23:37:12.685Z,19.19
2022-08-09T23:42:15.761Z,20.74
2022-08-09T23:47:19.054Z,20.50
2022-08-09T23:52:33.560Z,18.67
2022-08-09T23:57:44.962Z,18.80
